createdAt,value
2023-02-04T00:00:07.822Z,3.45
2023-02-04T00:02:35.177Z,3.47
2023-02-04T00:05:02.057Z,3.40
2023-02-04T00:07:28.746Z,3.49
2023-02-04T00:09:55.494Z,3.45
2023-02-04T00:12:22.600Z,3.52
2023-02-04T00:14:49.276Z,3.46
2023-02-04T00:17:15.947Z,3.52
2023-02-04T00:19:42.587Z,3.50
2023-02-04T00:22:09.943Z,3.63
2023-02-04T00:24:37.631Z,3.62
2023-02-04T00:27:05.951Z,3.55
2023-02-04T00:29:32.546Z,3.57
2023-02-04T00:31:59.303Z,3.55
2023-02-04T00:34:26.115Z,3.56
2023-02-04T00:36:52.698Z,3.55
2023-02-04T00:39:19.367Z,3.60
2023-02-04T00:41:46.000Z,3.66
2023-02-04T00:44:14.120Z,3.59
2023-02-04T00:46:42.577Z,3.68
2023-02-04T00:49:10.787Z,3.70
2023-02-04T00:51:41.137Z,3.68
2023-02-04T00:54:07.866Z,3.70
2023-02-04T00:56:34.839Z,3.69
2023-02-04T00:59:01.709Z,3.68
2023-02-04T01:01:28.557Z,3.71
2023-02-04T01:03:55.265Z,3.72
2023-02-04T01:06:21.930Z,3.68
2023-02-04T01:08:48.565Z,3.71
2023-02-04T01:11:15.187Z,3.74
2023-02-04T01:13:42.264Z,3.74
2023-02-04T01:16:09.673Z,3.75
2023-02-04T01:18:36.370Z,3.73
2023-02-04T01:21:03.137Z,3.77
2023-02-04T01:23:29.764Z,3.76
2023-02-04T01:25:56.498Z,3.80
2023-02-04T01:28:23.118Z,3.80
2023-02-04T01:30:49.760Z,3.80
2023-02-04T01:33:16.624Z,3.81
2023-02-04T01:35:43.399Z,3.79
2023-02-04T01:38:10.144Z,3.79
2023-02-04T01:40:37.130Z,3.77
2023-02-04T01:43:04.084Z,3.77
2023-02-04T01:45:33.635Z,3.84
2023-02-04T01:48:00.742Z,3.83
2023-02-04T01:50:27.418Z,3.82
2023-02-04T01:52:54.178Z,3.76
2023-02-04T01:55:25.984Z,3.82
2023-02-04T01:57:53.338Z,3.85
2023-02-04T02:00:26.034Z,3.85
2023-02-04T02:02:53.533Z,3.86
2023-02-04T02:05:36.134Z,3.81
2023-02-04T02:08:04.865Z,3.88
2023-02-04T02:10:32.898Z,3.88
2023-02-04T02:13:00.226Z,3.91
2023-02-04T02:15:27.494Z,3.86
2023-02-04T02:17:55.116Z,3.91
2023-02-04T02:20:23.622Z,3.92
2023-02-04T02:23:22.035Z,3.91
2023-02-04T02:25:49.540Z,3.90
2023-02-04T02:28:19.093Z,3.83
2023-02-04T02:30:47.108Z,3.83
2023-02-04T02:33:17.369Z,3.82
2023-02-04T02:35:48.263Z,3.90
2023-02-04T02:38:17.319Z,3.82
2023-02-04T02:40:44.195Z,3.83
2023-02-04T02:43:20.161Z,3.89
2023-02-04T02:45:47.667Z,3.88
2023-02-04T02:48:14.732Z,3.88
2023-02-04T02:50:43.213Z,3.97
2023-02-04T02:53:15.461Z,3.93
2023-02-04T02:55:42.471Z,3.98
2023-02-04T02:58:32.755Z,3.93
2023-02-04T03:01:06.346Z,3.90
2023-02-04T03:03:36.042Z,3.94
2023-02-04T03:06:10.106Z,3.86
2023-02-04T03:08:37.402Z,3.88
2023-02-04T03:11:04.226Z,3.94
2023-02-04T03:13:31.102Z,3.95
2023-02-04T03:15:58.286Z,3.96
2023-02-04T03:18:25.017Z,3.90
2023-02-04T03:20:52.266Z,3.90
2023-02-04T03:23:20.314Z,3.97
2023-02-04T03:25:47.304Z,3.92
2023-02-04T03:28:14.058Z,3.96
2023-02-04T03:30:40.838Z,3.88
2023-02-04T03:33:07.516Z,3.90
2023-02-04T03:35:34.109Z,3.97
2023-02-04T03:38:00.758Z,4.00
2023-02-04T03:40:27.390Z,3.92
2023-02-04T03:42:54.059Z,3.99
2023-02-04T03:45:21.273Z,3.89
2023-02-04T03:47:47.900Z,3.97
2023-02-04T03:50:14.977Z,3.90
2023-02-04T03:52:41.646Z,3.80
2023-02-04T03:55:08.567Z,3.91
2023-02-04T03:57:35.182Z,3.92
2023-02-04T04:00:01.855Z,3.85
2023-02-04T04:02:28.525Z,3.86
2023-02-04T04:04:55.164Z,3.80
2023-02-04T04:07:21.839Z,3.81
2023-02-04T04:09:48.406Z,3.75
2023-02-04T04:12:15.038Z,3.75
2023-02-04T04:14:41.683Z,3.70
2023-02-04T04:17:08.304Z,3.64
2023-02-04T04:19:34.963Z,3.63
2023-02-04T04:22:01.616Z,3.67
2023-02-04T04:24:28.248Z,3.58
2023-02-04T04:26:54.852Z,3.59
2023-02-04T04:29:21.483Z,3.58
2023-02-04T04:31:48.151Z,3.46
2023-02-04T04:34:14.800Z,3.48
2023-02-04T04:36:41.434Z,3.55
2023-02-04T04:39:08.036Z,3.49
2023-02-04T04:41:34.671Z,3.51
2023-02-04T04:44:01.298Z,3.49
2023-02-04T04:46:27.931Z,3.53
2023-02-04T04:48:54.558Z,3.56
2023-02-04T04:51:21.182Z,3.53
2023-02-04T04:53:47.798Z,3.55
2023-02-04T04:56:14.409Z,3.46
2023-02-04T04:58:41.012Z,3.51
2023-02-04T05:01:07.694Z,3.49
2023-02-04T05:03:34.358Z,3.52
2023-02-04T05:06:00.988Z,3.52
2023-02-04T05:08:27.615Z,3.57
2023-02-04T05:10:54.224Z,3.53
2023-02-04T05:13:20.922Z,3.54
2023-02-04T05:15:47.550Z,3.49
2023-02-04T05:18:14.151Z,3.58
2023-02-04T05:20:40.764Z,3.57
2023-02-04T05:23:07.415Z,3.67
2023-02-04T05:25:34.079Z,3.65
2023-02-04T05:28:00.782Z,3.66
2023-02-04T05:30:27.500Z,3.62
2023-02-04T05:32:54.147Z,3.66
2023-02-04T05:35:20.839Z,3.50
2023-02-04T05:37:47.508Z,3.52
2023-02-04T05:40:14.378Z,3.52
2023-02-04T05:42:41.916Z,3.53
2023-02-04T05:45:15.626Z,3.52
2023-02-04T05:47:42.937Z,3.55
2023-02-04T05:50:09.890Z,3.54
2023-02-04T05:52:36.532Z,3.44
2023-02-04T05:55:03.465Z,3.44
2023-02-04T05:57:30.230Z,3.45
2023-02-04T05:59:56.852Z,3.40
2023-02-04T06:02:23.562Z,3.32
2023-02-04T06:04:50.127Z,3.38
2023-02-04T06:07:16.770Z,3.26
2023-02-04T06:09:43.412Z,3.28
2023-02-04T06:12:10.582Z,3.21
2023-02-04T06:14:37.206Z,3.22
2023-02-04T06:17:04.034Z,3.23
2023-02-04T06:19:30.615Z,3.26
2023-02-04T06:21:57.359Z,3.26
2023-02-04T06:24:23.992Z,3.24
2023-02-04T06:26:50.563Z,3.07
2023-02-04T06:29:17.174Z,2.71
2023-02-04T06:31:44.672Z,2.29
2023-02-04T06:34:11.359Z,2.14
2023-02-04T06:36:38.000Z,2.16
2023-02-04T06:39:04.664Z,2.14
2023-02-04T06:41:31.271Z,2.15
2023-02-04T06:43:57.908Z,2.12
2023-02-04T06:46:24.567Z,2.14
2023-02-04T06:48:51.164Z,2.23
2023-02-04T06:51:17.815Z,2.10
2023-02-04T06:53:45.854Z,2.04
2023-02-04T06:56:12.623Z,2.01
2023-02-04T06:58:39.308Z,1.98
2023-02-04T07:01:06.439Z,2.02
2023-02-04T07:03:33.988Z,2.07
2023-02-04T07:06:00.671Z,2.10
2023-02-04T07:08:27.376Z,2.12
2023-02-04T07:10:53.982Z,2.02
2023-02-04T07:13:20.568Z,2.01
2023-02-04T07:15:47.181Z,2.08
2023-02-04T07:18:14.082Z,2.06
2023-02-04T07:20:40.676Z,2.03
2023-02-04T07:23:07.266Z,2.02
2023-02-04T07:25:33.883Z,2.10
2023-02-04T07:28:02.014Z,2.07
2023-02-04T07:30:28.672Z,2.06
2023-02-04T07:32:55.316Z,2.12
2023-02-04T07:35:21.969Z,2.17
2023-02-04T07:37:48.592Z,2.25
2023-02-04T07:40:15.462Z,2.20
2023-02-04T07:42:42.081Z,2.08
2023-02-04T07:45:09.204Z,2.08
2023-02-04T07:47:35.898Z,2.11
2023-02-04T07:50:02.529Z,2.19
2023-02-04T07:52:29.163Z,2.25
2023-02-04T07:54:55.792Z,2.29
2023-02-04T07:57:22.515Z,2.26
2023-02-04T07:59:49.130Z,2.23
2023-02-04T08:02:15.762Z,2.38
2023-02-04T08:04:42.401Z,2.47
2023-02-04T08:07:09.072Z,2.50
2023-02-04T08:09:35.757Z,2.27
2023-02-04T08:12:02.533Z,2.32
2023-02-04T08:14:29.209Z,2.36
2023-02-04T08:16:55.859Z,2.11
2023-02-04T08:19:22.548Z,2.07
2023-02-04T08:21:49.246Z,1.97
2023-02-04T08:24:16.410Z,1.97
2023-02-04T08:26:44.302Z,2.10
2023-02-04T08:29:11.009Z,2.03
2023-02-04T08:31:38.365Z,1.88
2023-02-04T08:34:05.912Z,1.93
2023-02-04T08:36:34.467Z,1.92
2023-02-04T08:39:01.340Z,1.93
2023-02-04T08:41:27.942Z,1.90
2023-02-04T08:43:54.522Z,1.88
2023-02-04T08:46:21.216Z,1.84
2023-02-04T08:48:47.969Z,1.88
2023-02-04T08:51:14.817Z,1.84
2023-02-04T08:53:41.448Z,2.03
2023-02-04T08:56:09.268Z,2.19
2023-02-04T08:58:36.550Z,2.27
2023-02-04T09:01:03.342Z,2.43
2023-02-04T09:03:29.976Z,2.37
2023-02-04T09:05:56.642Z,2.38
2023-02-04T09:08:23.224Z,2.28
2023-02-04T09:10:49.877Z,2.07
2023-02-04T09:13:16.611Z,2.10
2023-02-04T09:15:43.215Z,1.99
2023-02-04T09:18:17.920Z,1.92
2023-02-04T09:20:45.543Z,1.84
2023-02-04T09:23:12.958Z,1.87
2023-02-04T09:25:40.347Z,1.97
2023-02-04T09:28:10.076Z,2.10
2023-02-04T09:30:37.442Z,2.20
2023-02-04T09:33:04.321Z,2.25
2023-02-04T09:35:31.127Z,2.30
2023-02-04T09:37:57.745Z,2.27
2023-02-04T09:40:27.458Z,2.18
2023-02-04T09:42:55.551Z,2.12
2023-02-04T09:45:26.744Z,2.16
2023-02-04T09:47:54.446Z,2.15
2023-02-04T09:50:24.406Z,2.28
2023-02-04T09:52:54.360Z,2.40
2023-02-04T09:55:25.107Z,2.54
2023-02-04T09:57:51.740Z,2.42
2023-02-04T10:00:22.492Z,2.45
2023-02-04T10:02:49.331Z,2.41
2023-02-04T10:05:24.680Z,2.39
2023-02-04T10:07:51.276Z,2.41
2023-02-04T10:10:20.265Z,2.39
2023-02-04T10:12:48.546Z,2.38
2023-02-04T10:15:20.664Z,2.32
2023-02-04T10:17:54.563Z,2.32
2023-02-04T10:20:23.876Z,2.47
2023-02-04T10:22:53.650Z,2.47
2023-02-04T10:25:23.235Z,2.53
2023-02-04T10:27:55.468Z,2.63
2023-02-04T10:30:35.602Z,2.68
2023-02-04T10:33:24.780Z,2.79
2023-02-04T10:35:54.030Z,2.77
2023-02-04T10:38:21.142Z,2.69
2023-02-04T10:40:47.839Z,2.68
2023-02-04T10:43:23.802Z,2.52
2023-02-04T10:45:59.053Z,2.56
2023-02-04T10:48:26.240Z,2.46
2023-02-04T10:50:52.963Z,2.44
2023-02-04T10:53:45.088Z,2.41
2023-02-04T10:56:17.648Z,2.45
2023-02-04T10:58:44.522Z,2.68
2023-02-04T11:01:12.384Z,2.73
2023-02-04T11:03:40.378Z,2.64
2023-02-04T11:06:13.431Z,2.70
2023-02-04T11:08:40.906Z,2.71
2023-02-04T11:11:19.321Z,2.49
2023-02-04T11:13:59.136Z,2.43
2023-02-04T11:16:32.948Z,2.33
2023-02-04T11:19:05.591Z,2.26
2023-02-04T11:21:42.515Z,2.27
2023-02-04T11:24:33.065Z,2.21
2023-02-04T11:27:09.102Z,2.31
2023-02-04T11:29:42.804Z,2.53
2023-02-04T11:32:37.695Z,2.67
2023-02-04T11:35:28.636Z,2.80
2023-02-04T11:37:56.055Z,2.86
2023-02-04T11:40:40.830Z,3.04
2023-02-04T11:43:14.965Z,2.96
2023-02-04T11:45:42.584Z,3.01
2023-02-04T11:48:15.571Z,2.93
2023-02-04T11:50:42.303Z,2.98
2023-02-04T11:53:11.623Z,2.94
2023-02-04T11:55:47.398Z,2.79
2023-02-04T11:58:16.761Z,2.93
2023-02-04T12:00:44.052Z,2.93
2023-02-04T12:03:36.172Z,3.00
2023-02-04T12:06:03.542Z,3.02
2023-02-04T12:08:36.203Z,2.83
2023-02-04T12:11:07.643Z,2.78
2023-02-04T12:13:45.329Z,2.88
2023-02-04T12:16:11.927Z,2.90
2023-02-04T12:18:39.130Z,2.88
2023-02-04T12:21:05.840Z,3.01
2023-02-04T12:23:32.582Z,3.11
2023-02-04T12:25:59.308Z,3.21
2023-02-04T12:28:28.095Z,3.20
2023-02-04T12:30:55.527Z,3.18
2023-02-04T12:33:22.840Z,3.33
2023-02-04T12:35:49.468Z,3.20
2023-02-04T12:38:16.340Z,3.31
2023-02-04T12:40:43.172Z,3.17
2023-02-04T12:43:09.783Z,3.05
2023-02-04T12:45:37.800Z,3.11
2023-02-04T12:48:04.471Z,3.27
2023-02-04T12:50:31.094Z,3.27
2023-02-04T12:52:59.283Z,3.39
2023-02-04T12:55:28.832Z,3.27
2023-02-04T12:57:56.347Z,3.41
2023-02-04T13:00:23.227Z,3.46
2023-02-04T13:02:50.223Z,3.30
2023-02-04T13:05:17.401Z,3.19
2023-02-04T13:07:44.188Z,3.21
2023-02-04T13:10:11.640Z,3.05
2023-02-04T13:12:38.223Z,3.03
2023-02-04T13:15:05.885Z,3.00
2023-02-04T13:17:32.551Z,3.13
2023-02-04T13:20:00.549Z,3.04
2023-02-04T13:22:27.679Z,3.03
2023-02-04T13:24:54.384Z,3.22
2023-02-04T13:27:21.057Z,3.11
2023-02-04T13:29:47.694Z,3.09
2023-02-04T13:32:14.246Z,2.95
2023-02-04T13:34:40.947Z,2.87
2023-02-04T13:37:07.714Z,2.84
2023-02-04T13:39:34.309Z,2.79
2023-02-04T13:42:00.910Z,2.81
2023-02-04T13:44:27.756Z,2.77
2023-02-04T13:46:54.375Z,2.80
2023-02-04T13:49:21.669Z,2.98
2023-02-04T13:51:48.272Z,3.05
2023-02-04T13:54:14.972Z,2.95
2023-02-04T13:56:41.558Z,2.87
2023-02-04T13:59:08.222Z,2.94
2023-02-04T14:01:34.852Z,2.91
2023-02-04T14:04:01.545Z,2.93
2023-02-04T14:06:34.466Z,2.88
2023-02-04T14:09:01.766Z,2.77
2023-02-04T14:11:28.741Z,2.67
2023-02-04T14:13:55.523Z,2.61
2023-02-04T14:16:22.252Z,2.55
2023-02-04T14:18:48.909Z,2.57
2023-02-04T14:21:15.548Z,2.65
2023-02-04T14:23:42.311Z,2.71
2023-02-04T14:26:10.500Z,2.82
2023-02-04T14:28:37.089Z,2.81
2023-02-04T14:31:03.892Z,2.94
2023-02-04T14:33:30.545Z,2.94
2023-02-04T14:35:57.146Z,2.73
2023-02-04T14:38:23.696Z,2.56
2023-02-04T14:40:50.335Z,2.53
2023-02-04T14:43:16.934Z,2.55
2023-02-04T14:45:43.618Z,2.48
2023-02-04T14:48:10.482Z,2.33
2023-02-04T14:50:37.095Z,2.16
2023-02-04T14:53:03.775Z,2.24
2023-02-04T14:55:30.375Z,2.32
2023-02-04T14:57:56.992Z,2.44
2023-02-04T15:00:24.068Z,2.49
2023-02-04T15:02:50.992Z,2.47
2023-02-04T15:05:18.068Z,2.41
2023-02-04T15:07:44.634Z,2.36
2023-02-04T15:10:14.808Z,2.24
2023-02-04T15:12:41.853Z,2.15
2023-02-04T15:15:09.194Z,2.14
2023-02-04T15:17:35.795Z,2.07
2023-02-04T15:20:04.087Z,2.01
2023-02-04T15:22:30.728Z,1.91
2023-02-04T15:24:57.359Z,1.93
2023-02-04T15:27:24.430Z,1.85
2023-02-04T15:29:51.052Z,1.86
2023-02-04T15:32:17.717Z,1.84
2023-02-04T15:34:44.344Z,1.67
2023-02-04T15:37:11.026Z,1.72
2023-02-04T15:39:38.603Z,1.80
2023-02-04T15:42:05.294Z,1.75
2023-02-04T15:44:32.136Z,1.66
2023-02-04T15:46:58.783Z,1.52
2023-02-04T15:49:25.435Z,1.47
2023-02-04T15:51:52.051Z,1.48
2023-02-04T15:54:18.671Z,1.35
2023-02-04T15:56:45.280Z,1.34
2023-02-04T15:59:11.982Z,1.36
2023-02-04T16:01:38.707Z,1.40
2023-02-04T16:04:05.410Z,1.40
2023-02-04T16:06:32.032Z,1.47
2023-02-04T16:08:58.662Z,1.44
2023-02-04T16:11:25.347Z,1.45
2023-02-04T16:13:52.150Z,1.39
2023-02-04T16:16:19.600Z,1.52
2023-02-04T16:18:46.224Z,1.60
2023-02-04T16:21:12.942Z,1.59
2023-02-04T16:23:39.537Z,1.48
2023-02-04T16:26:06.150Z,1.50
2023-02-04T16:28:32.717Z,1.47
2023-02-04T16:30:59.433Z,1.44
2023-02-04T16:33:27.887Z,1.44
2023-02-04T16:36:07.463Z,1.45
2023-02-04T16:38:36.592Z,1.42
2023-02-04T16:41:03.569Z,1.43
2023-02-04T16:43:30.427Z,1.45
2023-02-04T16:45:57.088Z,1.43
2023-02-04T16:48:24.620Z,1.44
2023-02-04T16:50:51.464Z,1.43
2023-02-04T16:53:18.094Z,1.35
2023-02-04T16:55:46.162Z,1.38
2023-02-04T16:58:13.670Z,1.24
2023-02-04T17:00:44.816Z,1.10
2023-02-04T17:03:12.181Z,1.12
2023-02-04T17:05:39.707Z,1.21
2023-02-04T17:08:06.970Z,1.18
2023-02-04T17:10:52.170Z,1.20
2023-02-04T17:13:19.142Z,1.19
2023-02-04T17:15:45.789Z,1.21
2023-02-04T17:18:12.369Z,1.22
2023-02-04T17:20:39.038Z,1.26
2023-02-04T17:23:05.600Z,1.25
2023-02-04T17:25:32.623Z,1.22
2023-02-04T17:27:59.351Z,1.27
2023-02-04T17:30:26.017Z,1.19
2023-02-04T17:32:52.652Z,1.27
2023-02-04T17:35:19.289Z,1.17
2023-02-04T17:37:45.891Z,1.12
2023-02-04T17:40:15.651Z,1.23
2023-02-04T17:42:42.372Z,1.07
2023-02-04T17:45:10.747Z,1.10
2023-02-04T17:47:40.935Z,1.04
2023-02-04T17:50:10.048Z,1.08
2023-02-04T17:52:37.946Z,1.04
2023-02-04T17:55:32.695Z,1.11
2023-02-04T17:58:39.037Z,1.19
2023-02-04T18:01:14.860Z,1.31
2023-02-04T18:03:46.017Z,1.36
2023-02-04T18:06:20.360Z,1.31
2023-02-04T18:08:47.772Z,1.29
2023-02-04T18:11:27.513Z,1.25
2023-02-04T18:13:57.632Z,1.29
2023-02-04T18:16:30.528Z,1.28
2023-02-04T18:19:08.620Z,1.23
2023-02-04T18:21:37.070Z,1.15
2023-02-04T18:24:18.569Z,1.23
2023-02-04T18:26:53.449Z,1.27
2023-02-04T18:29:37.460Z,1.16
2023-02-04T18:32:25.739Z,1.06
2023-02-04T18:34:54.135Z,1.05
2023-02-04T18:37:33.755Z,0.94
2023-02-04T18:40:33.558Z,0.87
2023-02-04T18:43:36.899Z,0.79
2023-02-04T18:46:16.318Z,0.81
2023-02-04T18:49:02.919Z,1.01
2023-02-04T18:51:32.634Z,0.94
2023-02-04T18:54:17.809Z,1.10
2023-02-04T18:56:44.479Z,1.18
2023-02-04T18:59:15.902Z,1.01
2023-02-04T19:01:43.725Z,1.04
2023-02-04T19:04:20.951Z,1.09
2023-02-04T19:06:51.029Z,1.08
2023-02-04T19:09:27.171Z,1.14
2023-02-04T19:11:55.996Z,1.15
2023-02-04T19:14:36.352Z,1.17
2023-02-04T19:17:21.294Z,1.14
2023-02-04T19:19:55.989Z,1.08
2023-02-04T19:22:31.945Z,1.08
2023-02-04T19:25:18.702Z,0.97
2023-02-04T19:27:51.073Z,1.05
2023-02-04T19:30:40.700Z,1.06
2023-02-04T19:33:16.258Z,1.05
2023-02-04T19:35:43.357Z,0.98
2023-02-04T19:38:45.155Z,1.02
2023-02-04T19:41:49.065Z,1.02
2023-02-04T19:44:45.744Z,0.96
2023-02-04T19:47:24.574Z,0.96
2023-02-04T19:49:55.496Z,0.91
2023-02-04T19:52:43.765Z,0.85
2023-02-04T19:58:29.407Z,0.63
2023-02-04T20:01:18.199Z,0.58
2023-02-04T20:03:49.080Z,0.59
2023-02-04T20:06:45.564Z,0.69
2023-02-04T20:09:29.125Z,0.58
2023-02-04T20:12:05.922Z,0.63
2023-02-04T20:14:53.340Z,0.71
2023-02-04T20:17:41.862Z,0.87
2023-02-04T20:20:29.929Z,0.79
2023-02-04T20:23:23.154Z,0.83
2023-02-04T20:25:50.496Z,0.88
2023-02-04T20:28:42.348Z,0.94
2023-02-04T20:31:29.071Z,0.83
2023-02-04T20:33:59.372Z,0.85
2023-02-04T20:36:47.218Z,0.89
2023-02-04T20:39:36.468Z,0.94
2023-02-04T20:42:20.867Z,1.01
2023-02-04T20:44:48.157Z,0.94
2023-02-04T20:47:23.840Z,1.01
2023-02-04T20:49:58.272Z,1.00
2023-02-04T20:52:40.106Z,0.90
2023-02-04T20:55:27.243Z,0.91
2023-02-04T20:58:21.738Z,0.95
2023-02-04T21:00:53.293Z,0.84
2023-02-04T21:03:26.483Z,0.88
2023-02-04T21:05:54.588Z,0.87
2023-02-04T21:08:35.701Z,0.85
2023-02-04T21:11:02.954Z,0.82
2023-02-04T21:13:29.775Z,0.90
2023-02-04T21:15:56.695Z,0.88
2023-02-04T21:18:23.472Z,0.87
2023-02-04T21:20:50.036Z,0.96
2023-02-04T21:23:17.883Z,0.86
2023-02-04T21:25:44.998Z,0.80
2023-02-04T21:28:12.194Z,0.81
2023-02-04T21:30:38.843Z,0.81
2023-02-04T21:33:05.718Z,0.76
2023-02-04T21:35:32.604Z,0.75
2023-02-04T21:37:59.876Z,0.82
2023-02-04T21:40:26.818Z,0.69
2023-02-04T21:42:53.958Z,0.66
2023-02-04T21:45:22.745Z,0.58
2023-02-04T21:47:50.425Z,0.56
2023-02-04T21:50:19.212Z,0.47
2023-02-04T21:52:46.192Z,0.44
2023-02-04T21:55:14.499Z,0.36
2023-02-04T21:57:41.099Z,0.33
2023-02-04T22:00:09.891Z,0.29
2023-02-04T22:02:36.471Z,0.14
2023-02-04T22:05:07.239Z,0.23
2023-02-04T22:07:35.135Z,0.23
2023-02-04T22:10:02.214Z,0.20
2023-02-04T22:12:28.852Z,0.26
2023-02-04T22:15:14.076Z,0.22
2023-02-04T22:17:40.820Z,0.15
2023-02-04T22:20:08.087Z,0.16
2023-02-04T22:22:34.829Z,0.26
2023-02-04T22:25:01.838Z,0.22
2023-02-04T22:27:28.411Z,0.20
2023-02-04T22:29:56.846Z,0.22
2023-02-04T22:32:24.191Z,0.20
2023-02-04T22:34:50.930Z,0.16
2023-02-04T22:37:17.775Z,0.16
2023-02-04T22:39:44.412Z,0.23
2023-02-04T22:42:11.029Z,0.20
2023-02-04T22:44:37.759Z,0.20
2023-02-04T22:47:04.768Z,0.08
2023-02-04T22:49:35.715Z,0.12
2023-02-04T22:52:03.946Z,0.11
2023-02-04T22:54:31.052Z,0.10
2023-02-04T22:57:00.171Z,0.05
2023-02-04T22:59:27.822Z,0.15
2023-02-04T23:01:55.777Z,0.21
2023-02-04T23:04:23.058Z,0.10
2023-02-04T23:06:50.476Z,0.16
2023-02-04T23:09:18.855Z,0.18
2023-02-04T23:11:45.521Z,0.05
2023-02-04T23:14:12.463Z,0.18
2023-02-04T23:16:39.592Z,0.13
2023-02-04T23:19:06.488Z,0.23
2023-02-04T23:21:33.563Z,0.24
2023-02-04T23:24:00.529Z,0.32
2023-02-04T23:26:27.278Z,0.30
2023-02-04T23:28:53.898Z,0.24
2023-02-04T23:31:20.542Z,0.11
2023-02-04T23:33:47.214Z,0.13
2023-02-04T23:36:14.013Z,0.06
2023-02-04T23:38:40.606Z,0.10
2023-02-04T23:41:07.232Z,0.12
2023-02-04T23:43:33.906Z,0.08
2023-02-04T23:46:00.597Z,0.04
2023-02-04T23:48:27.263Z,0.04
2023-02-04T23:50:57.017Z,-0.05
2023-02-04T23:53:24.148Z,-0.01
2023-02-04T23:55:51.500Z,-0.05
2023-02-04T23:58:18.292Z,-0.01
